Ecokeeper — SVTY — position and weather

sailwx.info

Track history (hours):
 
Tides and Currents Weather Stations Pressure Air Temp Water Temp Dewpoint Dewpoint Depression Visibility Wind Speed Wind Dir Waves Ship Positions

Ecokeeper

Last reported at 2014-Sep-02 14:04 UTC. Time now 2014-Sep-03 07:21 UTC.
Position N 37°57' E 023°34'.

Length 90 m; draft 6.5 m.

Type: Tanker. MMSI: 240689000.

Date/timePositionNaut miles runAvg speedWind from/ knotsBaromVisibWave heightAir tempDewpointWater temp
2014-Sep-02 14:04N 37°57' E 023°34'1 2.5
2014-Sep-02 13:33N 37°56' E 023°34'4 4.4
2014-Sep-02 12:33N 37°52' E 023°31'0 0.0
2014-Sep-02 11:33N 37°52' E 023°31'0 0.0
2014-Sep-02 10:33N 37°52' E 023°31'0 0.0
2014-Sep-02 09:33N 37°52' E 023°31'0 0.0
2014-Sep-02 08:33N 37°52' E 023°31'0 0.0
2014-Sep-02 07:33N 37°52' E 023°31'0 0.5
2014-Sep-02 06:33N 37°52' E 023°30'5 5.5
2014-Sep-02 05:33N 37°57' E 023°34'  
2014-Aug-30 00:33N 37°57' E 023°34'4 4.0
2014-Aug-29 23:33N 37°53' E 023°32'2 1.9
2014-Aug-29 22:33N 37°52' E 023°30'0 0.0
2014-Aug-29 21:33N 37°52' E 023°30'0 0.0
2014-Aug-29 20:31N 37°52' E 023°30'0 0.0
2014-Aug-29 19:33N 37°52' E 023°30'0 0.0
2014-Aug-29 18:33N 37°52' E 023°30'0 0.0
2014-Aug-29 17:33N 37°52' E 023°30'0 0.0
2014-Aug-29 16:33N 37°52' E 023°30'1 0.6
2014-Aug-29 15:33N 37°51' E 023°30'0 0.0
2014-Aug-29 14:33N 37°51' E 023°30'0 0.0
2014-Aug-29 13:33N 37°51' E 023°30'0 0.0
2014-Aug-29 12:33N 37°51' E 023°30'0 0.0
2014-Aug-29 11:33N 37°51' E 023°30'0 0.0
2014-Aug-29 10:33N 37°51' E 023°30'0 0.0
2014-Aug-29 09:33N 37°51' E 023°30'0 0.1
2014-Aug-29 08:33N 37°51' E 023°30'0 0.0
2014-Aug-29 07:33N 37°51' E 023°30'0 0.0
2014-Aug-29 06:33N 37°51' E 023°30'0 0.0
2014-Aug-29 05:33N 37°51' E 023°30'3 2.5
2014-Aug-29 04:33N 37°53' E 023°32'8 7.5
2014-Aug-29 03:33N 38°01' E 023°34'1 0.6
2014-Aug-29 02:33N 38°01' E 023°35'0 0.0
2014-Aug-29 01:33N 38°01' E 023°35'0 0.0
2014-Aug-29 00:33N 38°01' E 023°35'0 0.0
2014-Aug-28 23:33N 38°01' E 023°35'1 1.0
2014-Aug-28 22:26N 38°02' E 023°36'0 0.0
2014-Aug-28 21:30N 38°02' E 023°36'0 0.0
2014-Aug-28 20:32N 38°02' E 023°36'0 0.0
2014-Aug-28 19:30N 38°02' E 023°36'0 0.0
2014-Aug-28 18:33N 38°02' E 023°36'0 0.0
2014-Aug-28 17:33N 38°02' E 023°36'0 0.0
2014-Aug-28 16:33N 38°02' E 023°36'0 0.0
2014-Aug-28 15:31N 38°02' E 023°36'0 0.0
2014-Aug-28 14:33N 38°02' E 023°36'0 0.0
2014-Aug-28 13:33N 38°02' E 023°36'0 0.0
2014-Aug-28 12:33N 38°02' E 023°36'0 0.0
2014-Aug-28 11:31N 38°02' E 023°36'0 0.0
2014-Aug-28 10:33N 38°02' E 023°36'0 0.0
2014-Aug-28 09:20N 38°02' E 023°36'0 0.0
2014-Aug-28 08:32N 38°02' E 023°36'0 0.0
2014-Aug-28 07:33N 38°02' E 023°36'0 0.0
2014-Aug-28 06:33N 38°02' E 023°36'4 3.5
2014-Aug-28 05:31N 37°59' E 023°33'  
Track history (hours):
 
Tides and Currents Weather Stations Pressure Air Temp Water Temp Dewpoint Dewpoint Depression Visibility Wind Speed Wind Dir Waves Ship Positions

Ecokeeper

Last reported at 2014-Sep-02 14:04 UTC. Time now 2014-Sep-03 07:21 UTC.
Position N 37°57' E 023°34'.

Length 90 m; draft 6.5 m.

Type: Tanker. MMSI: 240689000.

Date/timePositionNaut miles runAvg speedWind from/ knotsBaromVisibWave heightAir tempDewpointWater temp
2014-Sep-02 14:04N 37°57' E 023°34'1 2.5
2014-Sep-02 13:33N 37°56' E 023°34'4 4.4
2014-Sep-02 12:33N 37°52' E 023°31'0 0.0
2014-Sep-02 11:33N 37°52' E 023°31'0 0.0
2014-Sep-02 10:33N 37°52' E 023°31'0 0.0
2014-Sep-02 09:33N 37°52' E 023°31'0 0.0
2014-Sep-02 08:33N 37°52' E 023°31'0 0.0
2014-Sep-02 07:33N 37°52' E 023°31'0 0.5
2014-Sep-02 06:33N 37°52' E 023°30'5 5.5
2014-Sep-02 05:33N 37°57' E 023°34'  
2014-Aug-30 00:33N 37°57' E 023°34'4 4.0
2014-Aug-29 23:33N 37°53' E 023°32'2 1.9
2014-Aug-29 22:33N 37°52' E 023°30'0 0.0
2014-Aug-29 21:33N 37°52' E 023°30'0 0.0
2014-Aug-29 20:31N 37°52' E 023°30'0 0.0
2014-Aug-29 19:33N 37°52' E 023°30'0 0.0
2014-Aug-29 18:33N 37°52' E 023°30'0 0.0
2014-Aug-29 17:33N 37°52' E 023°30'0 0.0
2014-Aug-29 16:33N 37°52' E 023°30'1 0.6
2014-Aug-29 15:33N 37°51' E 023°30'0 0.0
2014-Aug-29 14:33N 37°51' E 023°30'0 0.0
2014-Aug-29 13:33N 37°51' E 023°30'0 0.0
2014-Aug-29 12:33N 37°51' E 023°30'0 0.0
2014-Aug-29 11:33N 37°51' E 023°30'0 0.0
2014-Aug-29 10:33N 37°51' E 023°30'0 0.0
2014-Aug-29 09:33N 37°51' E 023°30'0 0.1
2014-Aug-29 08:33N 37°51' E 023°30'0 0.0
2014-Aug-29 07:33N 37°51' E 023°30'0 0.0
2014-Aug-29 06:33N 37°51' E 023°30'0 0.0
2014-Aug-29 05:33N 37°51' E 023°30'3 2.5
2014-Aug-29 04:33N 37°53' E 023°32'8 7.5
2014-Aug-29 03:33N 38°01' E 023°34'1 0.6
2014-Aug-29 02:33N 38°01' E 023°35'0 0.0
2014-Aug-29 01:33N 38°01' E 023°35'0 0.0
2014-Aug-29 00:33N 38°01' E 023°35'0 0.0
2014-Aug-28 23:33N 38°01' E 023°35'1 1.0
2014-Aug-28 22:26N 38°02' E 023°36'0 0.0
2014-Aug-28 21:30N 38°02' E 023°36'0 0.0
2014-Aug-28 20:32N 38°02' E 023°36'0 0.0
2014-Aug-28 19:30N 38°02' E 023°36'0 0.0
2014-Aug-28 18:33N 38°02' E 023°36'0 0.0
2014-Aug-28 17:33N 38°02' E 023°36'0 0.0
2014-Aug-28 16:33N 38°02' E 023°36'0 0.0
2014-Aug-28 15:31N 38°02' E 023°36'0 0.0
2014-Aug-28 14:33N 38°02' E 023°36'0 0.0
2014-Aug-28 13:33N 38°02' E 023°36'0 0.0
2014-Aug-28 12:33N 38°02' E 023°36'0 0.0
2014-Aug-28 11:31N 38°02' E 023°36'0 0.0
2014-Aug-28 10:33N 38°02' E 023°36'0 0.0
2014-Aug-28 09:20N 38°02' E 023°36'0 0.0
2014-Aug-28 08:32N 38°02' E 023°36'0 0.0
2014-Aug-28 07:33N 38°02' E 023°36'0 0.0
2014-Aug-28 06:33N 38°02' E 023°36'4 3.5
2014-Aug-28 05:31N 37°59' E 023°33'  

Dump ship's entire track history